Queen Of Burnaby — VCVV — position and weather

sailwx.info

Track history (hours):
 
Tides and Currents Weather Stations Pressure Air Temp Water Temp Dewpoint Dewpoint Depression Visibility Wind Speed Wind Dir Waves Ship Positions

Queen Of Burnaby

Last reported at 2015-Jul-31 08:31 UTC. Time now 2015-Jul-31 13:25 UTC.
Position N 49°44' W 124°55'.

Length 130 m; draft 4 m.

Type: Passenger vessel. MMSI: 316001246.

Date/timePositionNaut miles runAvg speedWind from/ knotsBaromVisibWave heightAir tempDewpointWater temp
2015-Jul-31 08:31N 49°44' W 124°55'0 0.0
2015-Jul-31 07:25N 49°44' W 124°55'0 0.0
2015-Jul-31 06:28N 49°44' W 124°55'0 0.0
2015-Jul-31 05:31N 49°44' W 124°55'7 6.8
2015-Jul-31 04:33N 49°47' W 124°47'9 8.3
2015-Jul-31 03:24N 49°50' W 124°32'1214.3
2015-Jul-31 02:33N 49°46' W 124°50'3 3.1
2015-Jul-31 01:33N 49°45' W 124°55'1414.3
2015-Jul-31 00:33N 49°50' W 124°34'1 0.6
2015-Jul-30 23:32N 49°50' W 124°34'1414.1
2015-Jul-30 22:33N 49°45' W 124°53'1 1.5
2015-Jul-30 21:33N 49°44' W 124°55'1 0.7
2015-Jul-30 20:33N 49°45' W 124°54'1414.0
2015-Jul-30 19:33N 49°50' W 124°34'1 0.7
2015-Jul-30 18:33N 49°50' W 124°33'1414.2
2015-Jul-30 17:33N 49°45' W 124°54'1 1.1
2015-Jul-30 16:33N 49°44' W 124°55'1313.4
2015-Jul-30 15:33N 49°49' W 124°36'2 2.0
2015-Jul-30 14:33N 49°50' W 124°33'1414.1
2015-Jul-30 13:33N 49°45' W 124°54'1 1.1
2015-Jul-30 12:23N 49°44' W 124°55'0 0.0
2015-Jul-30 11:29N 49°44' W 124°55'0 0.0
2015-Jul-30 07:11N 49°44' W 124°55'7 2.6
2015-Jul-30 04:33N 49°47' W 124°46'9 8.6
2015-Jul-30 03:28N 49°50' W 124°32'1314.0
2015-Jul-30 02:34N 49°46' W 124°51'3 3.4
2015-Jul-30 01:33N 49°44' W 124°55'1212.0
2015-Jul-30 00:33N 49°49' W 124°38'4 4.2
2015-Jul-29 23:32N 49°50' W 124°32'1312.8
2015-Jul-29 22:33N 49°46' W 124°50'4 3.7
2015-Jul-29 21:33N 49°44' W 124°55'0 0.0
2015-Jul-29 20:24N 49°44' W 124°55'1113.0
2015-Jul-29 19:33N 49°48' W 124°40'5 4.9
2015-Jul-29 18:28N 49°50' W 124°32'1212.6
2015-Jul-29 17:33N 49°46' W 124°49'5 4.2
2015-Jul-29 16:28N 49°44' W 124°55'1213.7
2015-Jul-29 15:33N 49°49' W 124°37'4 3.5
2015-Jul-29 14:33N 49°50' W 124°32'1414.2
2015-Jul-29 13:33N 49°45' W 124°53'2 0.3
2015-Jul-29 07:26N 49°44' W 124°55'6 2.2
2015-Jul-29 04:33N 49°47' W 124°46'10 9.9
2015-Jul-29 03:33N 49°50' W 124°32'1312.8
2015-Jul-29 02:33N 49°46' W 124°51'3 3.3
2015-Jul-29 01:33N 49°44' W 124°55'1212.3
2015-Jul-29 00:33N 49°49' W 124°37'3 3.4
2015-Jul-28 23:33N 49°50' W 124°33'1312.8
2015-Jul-28 22:34N 49°46' W 124°51'3 1.4
2015-Jul-28 20:18N 49°44' W 124°55'810.5
2015-Jul-28 19:32N 49°47' W 124°44'8 6.0
2015-Jul-28 18:11N 49°50' W 124°32'914.1
2015-Jul-28 17:33N 49°47' W 124°45'7 6.8
2015-Jul-28 16:30N 49°44' W 124°55'1010.9
2015-Jul-28 15:33N 49°48' W 124°40'6 5.6
2015-Jul-28 14:33N 49°50' W 124°32'1414.0
2015-Jul-28 13:33N 49°45' W 124°53'2 1.7
2015-Jul-28 12:28N 49°44' W 124°55'0 0.0
2015-Jul-28 10:31N 49°44' W 124°55'0 0.0
2015-Jul-28 09:31N 49°44' W 124°55'0 0.0
2015-Jul-28 08:31N 49°44' W 124°55'0 0.0
2015-Jul-28 07:31N 49°44' W 124°55'0 0.0
2015-Jul-28 06:31N 49°44' W 124°55'0 0.0
2015-Jul-28 05:31N 49°44' W 124°55'6 6.5
2015-Jul-28 04:33N 49°47' W 124°47'10 8.6
2015-Jul-28 03:26N 49°50' W 124°32'1214.4
2015-Jul-28 02:33N 49°46' W 124°51'3 3.1
2015-Jul-28 01:33N 49°45' W 124°55'1514.5
2015-Jul-28 00:33N 49°50' W 124°34'1 1.1
2015-Jul-27 23:32N 49°50' W 124°32'1414.2
2015-Jul-27 22:33N 49°45' W 124°53'2 1.7
2015-Jul-27 21:23N 49°44' W 124°55'0 0.0
2015-Jul-27 20:33N 49°44' W 124°55'1111.3
2015-Jul-27 19:33N 49°48' W 124°39'5 4.5
2015-Jul-27 18:28N 49°50' W 124°32'1212.8
2015-Jul-27 17:33N 49°46' W 124°49'5 4.6
2015-Jul-27 16:33N 49°44' W 124°55'1313.5
2015-Jul-27 15:34N 49°49' W 124°36'1 1.1
2015-Jul-27 14:33N 49°49' W 124°37'1212.2
2015-Jul-27 13:32N 49°44' W 124°55'0 0.0
2015-Jul-27 08:09N 49°44' W 124°55'0 0.0
2015-Jul-27 07:30N 49°44' W 124°55'0 0.0
2015-Jul-27 06:15N 49°44' W 124°55'0 0.0
2015-Jul-27 05:12N 49°44' W 124°55'6 9.0
2015-Jul-27 04:33N 49°47' W 124°47'1010.1
2015-Jul-27 03:32N 49°50' W 124°32'1313.0
2015-Jul-27 02:34N 49°46' W 124°50'4 3.6
2015-Jul-27 01:33N 49°44' W 124°55'1312.7
2015-Jul-27 00:33N 49°49' W 124°37'3 3.0
2015-Jul-26 23:29N 49°50' W 124°32'1314.1
2015-Jul-26 22:33N 49°46' W 124°51'3 2.7
2015-Jul-26 21:33N 49°44' W 124°55'0 0.0
2015-Jul-26 20:33N 49°44' W 124°55'1413.8
2015-Jul-26 19:33N 49°49' W 124°35'2 2.3
2015-Jul-26 18:29N 49°50' W 124°32'1212.5
2015-Jul-26 17:33N 49°46' W 124°49'5 4.1
2015-Jul-26 16:27N 49°44' W 124°55'1010.6
2015-Jul-26 15:33N 49°48' W 124°42'7 6.6
2015-Jul-26 14:33N 49°50' W 124°32'1414.0
2015-Jul-26 13:33N 49°45' W 124°52'2 2.2
2015-Jul-26 12:33N 49°44' W 124°55'0 0.0
2015-Jul-26 10:08N 49°44' W 124°55'0 0.0
2015-Jul-26 09:32N 49°44' W 124°55'0 0.0
2015-Jul-26 08:14N 49°44' W 124°55'0 0.0
2015-Jul-26 07:32N 49°44' W 124°55'0 0.0
2015-Jul-26 06:32N 49°44' W 124°55'0 0.0
2015-Jul-26 05:32N 49°44' W 124°55'5 5.1
2015-Jul-26 04:32N 49°46' W 124°48'11 8.6
2015-Jul-26 03:15N 49°50' W 124°32'912.7
2015-Jul-26 02:33N 49°47' W 124°45'7 7.0
2015-Jul-26 01:32N 49°44' W 124°55'0 0.0
2015-Jul-26 00:29N 49°44' W 124°55'0 0.0
2015-Jul-25 23:32N 49°44' W 124°55'0 0.0
2015-Jul-25 22:32N 49°44' W 124°55'0 0.0
2015-Jul-25 21:32N 49°44' W 124°55'0 0.0
2015-Jul-25 20:33N 49°44' W 124°55'1111.5
2015-Jul-25 19:33N 49°49' W 124°39'5 4.8
2015-Jul-25 18:33N 49°50' W 124°32'1312.6
2015-Jul-25 17:33N 49°46' W 124°50'4 2.9
2015-Jul-25 16:19N 49°44' W 124°55'1012.9
2015-Jul-25 15:33N 49°48' W 124°41'6 6.1
2015-Jul-25 14:33N 49°50' W 124°32'1414.0
2015-Jul-25 13:33N 49°45' W 124°52'2 0.5
2015-Jul-25 09:23N 49°44' W 124°55'0 0.0
2015-Jul-25 07:29N 49°44' W 124°55'0 0.0
2015-Jul-25 06:23N 49°44' W 124°55'0 0.0
2015-Jul-25 05:11N 49°44' W 124°55'812.6
2015-Jul-25 04:31N 49°47' W 124°43'8 7.7
2015-Jul-25 03:32N 49°50' W 124°32'1414.2
2015-Jul-25 02:33N 49°46' W 124°53'0 0.4
2015-Jul-25 01:33N 49°45' W 124°53'12 6.2
2015-Jul-24 23:34N 49°50' W 124°35'1413.8
2015-Jul-24 22:33N 49°45' W 124°55'0 0.4
2015-Jul-24 21:29N 49°44' W 124°55'6 6.4
2015-Jul-24 20:33N 49°45' W 124°46'9 4.6
2015-Jul-24 18:33N 49°50' W 124°35'1413.7
2015-Jul-24 17:32N 49°45' W 124°55'1 0.6
2015-Jul-24 16:31N 49°44' W 124°55'1212.1
2015-Jul-24 15:33N 49°49' W 124°39'3 3.3
2015-Jul-24 14:34N 49°50' W 124°34'1414.2
2015-Jul-24 13:33N 49°45' W 124°55'1 0.6
2015-Jul-24 12:28N 49°44' W 124°55'0 0.0
2015-Jul-24 10:31N 49°44' W 124°55'0 0.0
2015-Jul-24 09:16N 49°44' W 124°55'0 0.0
2015-Jul-24 08:13N 49°44' W 124°55'0 0.0
2015-Jul-24 07:25N 49°44' W 124°55'0 0.0
2015-Jul-24 05:03N 49°44' W 124°55'612.1
2015-Jul-24 04:33N 49°47' W 124°47'1010.1
2015-Jul-24 03:33N 49°50' W 124°32'1312.7
2015-Jul-24 02:33N 49°46' W 124°50'2 2.3
2015-Jul-24 01:33N 49°45' W 124°54'1414.3
2015-Jul-24 00:33N 49°50' W 124°33'2 1.9
2015-Jul-23 23:33N 49°50' W 124°36'1413.8
2015-Jul-23 22:33N 49°44' W 124°55'0 0.1
2015-Jul-23 21:05N 49°44' W 124°55'0 0.0
2015-Jul-23 20:14N 49°44' W 124°55'1012.0
2015-Jul-23 19:26N 49°48' W 124°41'6 6.3
2015-Jul-23 18:24N 49°50' W 124°32'1112.9
2015-Jul-23 17:33N 49°46' W 124°48'5 5.4
2015-Jul-23 16:33N 49°44' W 124°55'1211.8
2015-Jul-23 15:33N 49°49' W 124°38'4 3.6
2015-Jul-23 14:33N 49°50' W 124°34'1413.5
2015-Jul-23 13:33N 49°45' W 124°53'2 1.7
2015-Jul-23 12:29N 49°44' W 124°55'0 0.0
2015-Jul-23 11:32N 49°44' W 124°55'0 0.0
2015-Jul-23 10:32N 49°44' W 124°55'0 0.0
2015-Jul-23 09:32N 49°44' W 124°55'0 0.0
2015-Jul-23 08:32N 49°44' W 124°55'0 0.0
2015-Jul-23 07:32N 49°44' W 124°55'0 0.0
2015-Jul-23 06:32N 49°44' W 124°55'0 0.0
2015-Jul-23 05:32N 49°44' W 124°55'6 6.1
2015-Jul-23 04:33N 49°47' W 124°47'1010.3
2015-Jul-23 03:33N 49°50' W 124°32'1312.5
2015-Jul-23 02:33N 49°46' W 124°50'4 3.7
2015-Jul-23 01:33N 49°44' W 124°55'1212.0
2015-Jul-23 00:33N 49°49' W 124°38'4 3.9
2015-Jul-22 23:31N 49°50' W 124°32'1313.9
2015-Jul-22 22:33N 49°46' W 124°52'3 1.2
2015-Jul-22 20:22N 49°44' W 124°55'1011.4
2015-Jul-22 19:31N 49°48' W 124°41'6 5.4
2015-Jul-22 18:20N 49°50' W 124°32'1013.5
2015-Jul-22 17:33N 49°46' W 124°47'6 5.5
2015-Jul-22 16:32N 49°44' W 124°55'1111.5
2015-Jul-22 15:33N 49°48' W 124°39'4 3.9
2015-Jul-22 14:33N 49°50' W 124°34'1414.0
2015-Jul-22 13:33N 49°45' W 124°54'1 0.2
2015-Jul-22 07:27N 49°44' W 124°55'0 0.0
2015-Jul-22 05:33N 49°44' W 124°55'7 7.3
2015-Jul-22 04:33N 49°47' W 124°45'9 7.8
2015-Jul-22 03:27N 49°50' W 124°33'1213.6
2015-Jul-22 02:34N 49°46' W 124°50'4 3.6
2015-Jul-22 01:33N 49°44' W 124°55'1212.0
2015-Jul-22 00:33N 49°49' W 124°38'4 3.5
2015-Jul-21 23:30N 49°50' W 124°33'1313.6
2015-Jul-21 22:33N 49°46' W 124°51'3 2.5
2015-Jul-21 21:26N 49°44' W 124°55'0 0.0
2015-Jul-21 20:30N 49°44' W 124°55'1212.4
2015-Jul-21 19:33N 49°49' W 124°39'4 3.7
2015-Jul-21 18:33N 49°50' W 124°34'1414.0
2015-Jul-21 17:33N 49°45' W 124°54'2 1.8
2015-Jul-21 16:34N 49°46' W 124°52'6 2.8
2015-Jul-21 14:25N 49°47' W 124°42'9 9.4
2015-Jul-21 13:28N 49°44' W 124°55'0 0.0
2015-Jul-21 12:22N 49°44' W 124°55'0 0.0
2015-Jul-21 11:22N 49°44' W 124°55'0 0.0
2015-Jul-21 10:28N 49°44' W 124°55'0 0.0
2015-Jul-21 09:31N 49°44' W 124°55'0 0.0
2015-Jul-21 08:31N 49°44' W 124°55'  
Track history (hours):
 
Tides and Currents Weather Stations Pressure Air Temp Water Temp Dewpoint Dewpoint Depression Visibility Wind Speed Wind Dir Waves Ship Positions

Queen Of Burnaby

Last reported at 2015-Jul-31 08:31 UTC. Time now 2015-Jul-31 13:25 UTC.
Position N 49°44' W 124°55'.

Length 130 m; draft 4 m.

Type: Passenger vessel. MMSI: 316001246.

Date/timePositionNaut miles runAvg speedWind from/ knotsBaromVisibWave heightAir tempDewpointWater temp
2015-Jul-31 08:31N 49°44' W 124°55'0 0.0
2015-Jul-31 07:25N 49°44' W 124°55'0 0.0
2015-Jul-31 06:28N 49°44' W 124°55'0 0.0
2015-Jul-31 05:31N 49°44' W 124°55'7 6.8
2015-Jul-31 04:33N 49°47' W 124°47'9 8.3
2015-Jul-31 03:24N 49°50' W 124°32'1214.3
2015-Jul-31 02:33N 49°46' W 124°50'3 3.1
2015-Jul-31 01:33N 49°45' W 124°55'1414.3
2015-Jul-31 00:33N 49°50' W 124°34'1 0.6
2015-Jul-30 23:32N 49°50' W 124°34'1414.1
2015-Jul-30 22:33N 49°45' W 124°53'1 1.5
2015-Jul-30 21:33N 49°44' W 124°55'1 0.7
2015-Jul-30 20:33N 49°45' W 124°54'1414.0
2015-Jul-30 19:33N 49°50' W 124°34'1 0.7
2015-Jul-30 18:33N 49°50' W 124°33'1414.2
2015-Jul-30 17:33N 49°45' W 124°54'1 1.1
2015-Jul-30 16:33N 49°44' W 124°55'1313.4
2015-Jul-30 15:33N 49°49' W 124°36'2 2.0
2015-Jul-30 14:33N 49°50' W 124°33'1414.1
2015-Jul-30 13:33N 49°45' W 124°54'1 1.1
2015-Jul-30 12:23N 49°44' W 124°55'0 0.0
2015-Jul-30 11:29N 49°44' W 124°55'0 0.0
2015-Jul-30 07:11N 49°44' W 124°55'7 2.6
2015-Jul-30 04:33N 49°47' W 124°46'9 8.6
2015-Jul-30 03:28N 49°50' W 124°32'1314.0
2015-Jul-30 02:34N 49°46' W 124°51'3 3.4
2015-Jul-30 01:33N 49°44' W 124°55'1212.0
2015-Jul-30 00:33N 49°49' W 124°38'4 4.2
2015-Jul-29 23:32N 49°50' W 124°32'1312.8
2015-Jul-29 22:33N 49°46' W 124°50'4 3.7
2015-Jul-29 21:33N 49°44' W 124°55'0 0.0
2015-Jul-29 20:24N 49°44' W 124°55'1113.0
2015-Jul-29 19:33N 49°48' W 124°40'5 4.9
2015-Jul-29 18:28N 49°50' W 124°32'1212.6
2015-Jul-29 17:33N 49°46' W 124°49'5 4.2
2015-Jul-29 16:28N 49°44' W 124°55'1213.7
2015-Jul-29 15:33N 49°49' W 124°37'4 3.5
2015-Jul-29 14:33N 49°50' W 124°32'1414.2
2015-Jul-29 13:33N 49°45' W 124°53'2 0.3
2015-Jul-29 07:26N 49°44' W 124°55'6 2.2
2015-Jul-29 04:33N 49°47' W 124°46'10 9.9
2015-Jul-29 03:33N 49°50' W 124°32'1312.8
2015-Jul-29 02:33N 49°46' W 124°51'3 3.3
2015-Jul-29 01:33N 49°44' W 124°55'1212.3
2015-Jul-29 00:33N 49°49' W 124°37'3 3.4
2015-Jul-28 23:33N 49°50' W 124°33'1312.8
2015-Jul-28 22:34N 49°46' W 124°51'3 1.4
2015-Jul-28 20:18N 49°44' W 124°55'810.5
2015-Jul-28 19:32N 49°47' W 124°44'8 6.0
2015-Jul-28 18:11N 49°50' W 124°32'914.1
2015-Jul-28 17:33N 49°47' W 124°45'7 6.8
2015-Jul-28 16:30N 49°44' W 124°55'1010.9
2015-Jul-28 15:33N 49°48' W 124°40'6 5.6
2015-Jul-28 14:33N 49°50' W 124°32'1414.0
2015-Jul-28 13:33N 49°45' W 124°53'2 1.7
2015-Jul-28 12:28N 49°44' W 124°55'0 0.0
2015-Jul-28 10:31N 49°44' W 124°55'0 0.0
2015-Jul-28 09:31N 49°44' W 124°55'0 0.0
2015-Jul-28 08:31N 49°44' W 124°55'0 0.0
2015-Jul-28 07:31N 49°44' W 124°55'0 0.0
2015-Jul-28 06:31N 49°44' W 124°55'0 0.0
2015-Jul-28 05:31N 49°44' W 124°55'6 6.5
2015-Jul-28 04:33N 49°47' W 124°47'10 8.6
2015-Jul-28 03:26N 49°50' W 124°32'1214.4
2015-Jul-28 02:33N 49°46' W 124°51'3 3.1
2015-Jul-28 01:33N 49°45' W 124°55'1514.5
2015-Jul-28 00:33N 49°50' W 124°34'1 1.1
2015-Jul-27 23:32N 49°50' W 124°32'1414.2
2015-Jul-27 22:33N 49°45' W 124°53'2 1.7
2015-Jul-27 21:23N 49°44' W 124°55'0 0.0
2015-Jul-27 20:33N 49°44' W 124°55'1111.3
2015-Jul-27 19:33N 49°48' W 124°39'5 4.5
2015-Jul-27 18:28N 49°50' W 124°32'1212.8
2015-Jul-27 17:33N 49°46' W 124°49'5 4.6
2015-Jul-27 16:33N 49°44' W 124°55'1313.5
2015-Jul-27 15:34N 49°49' W 124°36'1 1.1
2015-Jul-27 14:33N 49°49' W 124°37'1212.2
2015-Jul-27 13:32N 49°44' W 124°55'0 0.0
2015-Jul-27 08:09N 49°44' W 124°55'0 0.0
2015-Jul-27 07:30N 49°44' W 124°55'0 0.0
2015-Jul-27 06:15N 49°44' W 124°55'0 0.0
2015-Jul-27 05:12N 49°44' W 124°55'6 9.0
2015-Jul-27 04:33N 49°47' W 124°47'1010.1
2015-Jul-27 03:32N 49°50' W 124°32'1313.0
2015-Jul-27 02:34N 49°46' W 124°50'4 3.6
2015-Jul-27 01:33N 49°44' W 124°55'1312.7
2015-Jul-27 00:33N 49°49' W 124°37'3 3.0
2015-Jul-26 23:29N 49°50' W 124°32'1314.1
2015-Jul-26 22:33N 49°46' W 124°51'3 2.7
2015-Jul-26 21:33N 49°44' W 124°55'0 0.0
2015-Jul-26 20:33N 49°44' W 124°55'1413.8
2015-Jul-26 19:33N 49°49' W 124°35'2 2.3
2015-Jul-26 18:29N 49°50' W 124°32'1212.5
2015-Jul-26 17:33N 49°46' W 124°49'5 4.1
2015-Jul-26 16:27N 49°44' W 124°55'1010.6
2015-Jul-26 15:33N 49°48' W 124°42'7 6.6
2015-Jul-26 14:33N 49°50' W 124°32'1414.0
2015-Jul-26 13:33N 49°45' W 124°52'2 2.2
2015-Jul-26 12:33N 49°44' W 124°55'0 0.0
2015-Jul-26 10:08N 49°44' W 124°55'0 0.0
2015-Jul-26 09:32N 49°44' W 124°55'0 0.0
2015-Jul-26 08:14N 49°44' W 124°55'0 0.0
2015-Jul-26 07:32N 49°44' W 124°55'0 0.0
2015-Jul-26 06:32N 49°44' W 124°55'0 0.0
2015-Jul-26 05:32N 49°44' W 124°55'5 5.1
2015-Jul-26 04:32N 49°46' W 124°48'11 8.6
2015-Jul-26 03:15N 49°50' W 124°32'912.7
2015-Jul-26 02:33N 49°47' W 124°45'7 7.0
2015-Jul-26 01:32N 49°44' W 124°55'0 0.0
2015-Jul-26 00:29N 49°44' W 124°55'0 0.0
2015-Jul-25 23:32N 49°44' W 124°55'0 0.0
2015-Jul-25 22:32N 49°44' W 124°55'0 0.0
2015-Jul-25 21:32N 49°44' W 124°55'0 0.0
2015-Jul-25 20:33N 49°44' W 124°55'1111.5
2015-Jul-25 19:33N 49°49' W 124°39'5 4.8
2015-Jul-25 18:33N 49°50' W 124°32'1312.6
2015-Jul-25 17:33N 49°46' W 124°50'4 2.9
2015-Jul-25 16:19N 49°44' W 124°55'1012.9
2015-Jul-25 15:33N 49°48' W 124°41'6 6.1
2015-Jul-25 14:33N 49°50' W 124°32'1414.0
2015-Jul-25 13:33N 49°45' W 124°52'2 0.5
2015-Jul-25 09:23N 49°44' W 124°55'0 0.0
2015-Jul-25 07:29N 49°44' W 124°55'0 0.0
2015-Jul-25 06:23N 49°44' W 124°55'0 0.0
2015-Jul-25 05:11N 49°44' W 124°55'812.6
2015-Jul-25 04:31N 49°47' W 124°43'8 7.7
2015-Jul-25 03:32N 49°50' W 124°32'1414.2
2015-Jul-25 02:33N 49°46' W 124°53'0 0.4
2015-Jul-25 01:33N 49°45' W 124°53'12 6.2
2015-Jul-24 23:34N 49°50' W 124°35'1413.8
2015-Jul-24 22:33N 49°45' W 124°55'0 0.4
2015-Jul-24 21:29N 49°44' W 124°55'6 6.4
2015-Jul-24 20:33N 49°45' W 124°46'9 4.6
2015-Jul-24 18:33N 49°50' W 124°35'1413.7
2015-Jul-24 17:32N 49°45' W 124°55'1 0.6
2015-Jul-24 16:31N 49°44' W 124°55'1212.1
2015-Jul-24 15:33N 49°49' W 124°39'3 3.3
2015-Jul-24 14:34N 49°50' W 124°34'1414.2
2015-Jul-24 13:33N 49°45' W 124°55'1 0.6
2015-Jul-24 12:28N 49°44' W 124°55'0 0.0
2015-Jul-24 10:31N 49°44' W 124°55'0 0.0
2015-Jul-24 09:16N 49°44' W 124°55'0 0.0
2015-Jul-24 08:13N 49°44' W 124°55'0 0.0
2015-Jul-24 07:25N 49°44' W 124°55'0 0.0
2015-Jul-24 05:03N 49°44' W 124°55'612.1
2015-Jul-24 04:33N 49°47' W 124°47'1010.1
2015-Jul-24 03:33N 49°50' W 124°32'1312.7
2015-Jul-24 02:33N 49°46' W 124°50'2 2.3
2015-Jul-24 01:33N 49°45' W 124°54'1414.3
2015-Jul-24 00:33N 49°50' W 124°33'2 1.9
2015-Jul-23 23:33N 49°50' W 124°36'1413.8
2015-Jul-23 22:33N 49°44' W 124°55'0 0.1
2015-Jul-23 21:05N 49°44' W 124°55'0 0.0
2015-Jul-23 20:14N 49°44' W 124°55'1012.0
2015-Jul-23 19:26N 49°48' W 124°41'6 6.3
2015-Jul-23 18:24N 49°50' W 124°32'1112.9
2015-Jul-23 17:33N 49°46' W 124°48'5 5.4
2015-Jul-23 16:33N 49°44' W 124°55'1211.8
2015-Jul-23 15:33N 49°49' W 124°38'4 3.6
2015-Jul-23 14:33N 49°50' W 124°34'1413.5
2015-Jul-23 13:33N 49°45' W 124°53'2 1.7
2015-Jul-23 12:29N 49°44' W 124°55'0 0.0
2015-Jul-23 11:32N 49°44' W 124°55'0 0.0
2015-Jul-23 10:32N 49°44' W 124°55'0 0.0
2015-Jul-23 09:32N 49°44' W 124°55'0 0.0
2015-Jul-23 08:32N 49°44' W 124°55'0 0.0
2015-Jul-23 07:32N 49°44' W 124°55'0 0.0
2015-Jul-23 06:32N 49°44' W 124°55'0 0.0
2015-Jul-23 05:32N 49°44' W 124°55'6 6.1
2015-Jul-23 04:33N 49°47' W 124°47'1010.3
2015-Jul-23 03:33N 49°50' W 124°32'1312.5
2015-Jul-23 02:33N 49°46' W 124°50'4 3.7
2015-Jul-23 01:33N 49°44' W 124°55'1212.0
2015-Jul-23 00:33N 49°49' W 124°38'4 3.9
2015-Jul-22 23:31N 49°50' W 124°32'1313.9
2015-Jul-22 22:33N 49°46' W 124°52'3 1.2
2015-Jul-22 20:22N 49°44' W 124°55'1011.4
2015-Jul-22 19:31N 49°48' W 124°41'6 5.4
2015-Jul-22 18:20N 49°50' W 124°32'1013.5
2015-Jul-22 17:33N 49°46' W 124°47'6 5.5
2015-Jul-22 16:32N 49°44' W 124°55'1111.5
2015-Jul-22 15:33N 49°48' W 124°39'4 3.9
2015-Jul-22 14:33N 49°50' W 124°34'1414.0
2015-Jul-22 13:33N 49°45' W 124°54'1 0.2
2015-Jul-22 07:27N 49°44' W 124°55'0 0.0
2015-Jul-22 05:33N 49°44' W 124°55'7 7.3
2015-Jul-22 04:33N 49°47' W 124°45'9 7.8
2015-Jul-22 03:27N 49°50' W 124°33'1213.6
2015-Jul-22 02:34N 49°46' W 124°50'4 3.6
2015-Jul-22 01:33N 49°44' W 124°55'1212.0
2015-Jul-22 00:33N 49°49' W 124°38'4 3.5
2015-Jul-21 23:30N 49°50' W 124°33'1313.6
2015-Jul-21 22:33N 49°46' W 124°51'3 2.5
2015-Jul-21 21:26N 49°44' W 124°55'0 0.0
2015-Jul-21 20:30N 49°44' W 124°55'1212.4
2015-Jul-21 19:33N 49°49' W 124°39'4 3.7
2015-Jul-21 18:33N 49°50' W 124°34'1414.0
2015-Jul-21 17:33N 49°45' W 124°54'2 1.8
2015-Jul-21 16:34N 49°46' W 124°52'6 2.8
2015-Jul-21 14:25N 49°47' W 124°42'9 9.4
2015-Jul-21 13:28N 49°44' W 124°55'0 0.0
2015-Jul-21 12:22N 49°44' W 124°55'0 0.0
2015-Jul-21 11:22N 49°44' W 124°55'0 0.0
2015-Jul-21 10:28N 49°44' W 124°55'0 0.0
2015-Jul-21 09:31N 49°44' W 124°55'0 0.0
2015-Jul-21 08:31N 49°44' W 124°55'  

Dump ship's entire track history